Metar z pełnej godziny Komunikat METAR ze strony awiacja.imgw.pl Metar G00 EPSC METAR EPSC 230400Z 24012G26KT 200V270 9999 SCT022 BKN039 11/07 Q0987 =